Time;durP1;ratioP1;P1;durP2;ratioP2;P2;SDS_P1;SDS_P2;PMS_P1;PMS_P2;Temp;Humidity;BMP_temperature;BMP_pressure;BME280_temperature;BME280_humidity;BME280_pressure;Samples;Min_cycle;Max_cycle;Signal;HPM_P1;HPM_P2
2021/12/08 00:03:28;;;;;;;3.27;1.70;;;6.30;99.90;;;;;;10414965;28;20220;-68
2021/12/08 00:08:30;;;;;;;5.00;1.67;;;6.20;99.90;;;;;;10414393;28;20311;-70
2021/12/08 00:13:35;;;;;;;2.60;1.50;;;6.20;99.90;;;;;;10401595;28;20224;-70
2021/12/08 00:18:36;;;;;;;1.70;1.20;;;6.30;99.90;;;;;;10412346;28;20233;-69
2021/12/08 00:23:37;;;;;;;3.40;1.30;;;6.30;99.90;;;;;;10414470;28;20633;-69
2021/12/08 00:28:38;;;;;;;2.30;1.10;;;6.30;99.90;;;;;;10403608;28;20343;-70
2021/12/08 00:33:39;;;;;;;3.60;1.20;;;6.30;99.90;;;;;;10411444;28;20339;-72
2021/12/08 00:38:43;;;;;;;3.60;1.30;;;6.30;99.90;;;;;;10413161;28;20216;-70
2021/12/08 00:43:44;;;;;;;3.57;1.70;;;6.20;99.90;;;;;;10411987;28;20722;-70
2021/12/08 00:48:51;;;;;;;4.17;1.23;;;6.20;99.90;;;;;;10411536;28;20290;-70
2021/12/08 00:53:53;;;;;;;2.17;1.00;;;6.20;99.90;;;;;;10410907;28;20252;-70
2021/12/08 00:58:53;;;;;;;1.87;1.03;;;6.20;99.90;;;;;;10410287;28;20739;-69
2021/12/08 01:03:54;;;;;;;2.20;1.20;;;6.10;99.90;;;;;;10410791;28;20233;-70
2021/12/08 01:08:55;;;;;;;3.07;1.17;;;5.90;99.90;;;;;;10411320;28;20623;-70
2021/12/08 01:13:56;;;;;;;1.93;1.00;;;5.70;99.90;;;;;;10413112;28;20654;-71
2021/12/08 01:18:57;;;;;;;1.60;0.83;;;5.50;99.90;;;;;;10400674;28;20224;-70
2021/12/08 01:23:57;;;;;;;1.13;0.93;;;5.40;99.90;;;;;;10413888;28;20235;-69
2021/12/08 01:28:58;;;;;;;1.77;0.83;;;5.30;99.90;;;;;;10396947;28;20316;-69
2021/12/08 01:33:58;;;;;;;2.37;1.07;;;5.30;99.90;;;;;;10394989;28;20231;-70
2021/12/08 01:38:59;;;;;;;2.33;1.37;;;5.30;99.90;;;;;;10402051;28;20220;-70
2021/12/08 01:49:20;;;;;;;2.20;0.97;;;5.20;99.90;;;;;;10421510;28;20220;-69
2021/12/08 01:54:20;;;;;;;2.87;0.97;;;5.10;99.90;;;;;;10401364;28;20859;-69
2021/12/08 01:59:21;;;;;;;2.57;1.20;;;5.00;99.90;;;;;;10419365;28;20270;-69
2021/12/08 02:04:22;;;;;;;4.37;1.13;;;4.90;99.90;;;;;;10418335;28;20315;-69
2021/12/08 02:09:22;;;;;;;3.40;1.10;;;4.90;99.90;;;;;;10406214;28;20220;-70
2021/12/08 02:14:23;;;;;;;2.20;1.20;;;4.70;99.90;;;;;;10417356;28;20228;-70
2021/12/08 02:19:24;;;;;;;2.27;1.20;;;4.50;99.90;;;;;;10415618;28;20232;-71
2021/12/08 02:24:25;;;;;;;2.43;1.30;;;4.60;99.90;;;;;;10416912;28;20340;-69
2021/12/08 02:29:43;;;;;;;1.37;1.07;;;4.60;99.90;;;;;;10405362;28;20299;-70
2021/12/08 02:50:44;;;;;;;2.77;1.07;;;4.90;99.90;;;;;;10408338;28;20212;-71
2021/12/08 02:55:45;;;;;;;2.77;1.13;;;4.90;99.90;;;;;;10412495;28;20235;-69
2021/12/08 03:00:54;;;;;;;2.50;1.17;;;5.00;99.90;;;;;;10414222;28;20901;-70
2021/12/08 03:05:55;;;;;;;1.73;1.40;;;5.00;99.90;;;;;;10415330;28;20270;-70
2021/12/08 03:10:56;;;;;;;2.10;1.00;;;5.10;99.90;;;;;;10414409;28;20776;-69
2021/12/08 03:15:57;;;;;;;2.47;1.23;;;5.20;99.90;;;;;;10414985;28;20228;-69
2021/12/08 03:20:58;;;;;;;3.20;1.50;;;5.20;99.90;;;;;;10413947;28;20224;-71
2021/12/08 03:26:02;;;;;;;3.00;1.83;;;5.30;99.90;;;;;;10407269;28;20224;-68
2021/12/08 03:31:15;;;;;;;1.80;1.40;;;5.50;99.90;;;;;;10404822;28;20659;-69
2021/12/08 03:36:16;;;;;;;1.47;0.77;;;5.60;99.90;;;;;;10401860;28;20237;-69
2021/12/08 03:41:17;;;;;;;1.93;0.80;;;5.60;99.90;;;;;;10412306;28;20694;-68
2021/12/08 03:46:18;;;;;;;1.00;0.80;;;5.60;99.90;;;;;;10412617;28;20220;-69
2021/12/08 03:51:20;;;;;;;1.53;1.10;;;5.60;99.90;;;;;;10409562;28;20213;-69
2021/12/08 03:56:20;;;;;;;2.30;1.70;;;5.60;99.90;;;;;;10391478;28;20232;-69
2021/12/08 04:01:21;;;;;;;3.23;1.60;;;5.50;99.90;;;;;;10395506;28;20232;-68
2021/12/08 04:06:51;;;;;;;4.03;1.63;;;5.50;99.90;;;;;;10409596;28;20307;-68
2021/12/08 04:11:49;;;;;;;1.93;1.37;;;5.40;99.90;;;;;;10410196;28;20247;-69
2021/12/08 04:16:59;;;;;;;4.50;1.10;;;5.40;99.90;;;;;;10410402;28;20251;-69
2021/12/08 04:22:07;;;;;;;2.90;1.20;;;5.30;99.90;;;;;;10410049;28;20325;-69
2021/12/08 04:27:15;;;;;;;3.60;1.80;;;5.30;99.90;;;;;;10410665;28;20227;-69
2021/12/08 04:32:18;;;;;;;2.40;1.30;;;5.20;99.90;;;;;;10397888;28;20216;-69
2021/12/08 04:37:27;;;;;;;2.33;1.50;;;5.20;99.90;;;;;;10408568;28;20247;-69
2021/12/08 04:48:07;;;;;;;3.20;1.80;;;5.30;99.90;;;;;;10402823;28;20425;-69
2021/12/08 05:08:56;;;;;;;2.53;1.60;;;5.40;99.90;;;;;;10409520;28;20223;-69
2021/12/08 05:14:03;;;;;;;1.83;1.43;;;5.40;99.90;;;;;;10409003;28;20298;-69
2021/12/08 05:19:07;;;;;;;2.60;1.30;;;5.50;99.90;;;;;;10407098;28;20229;-68
2021/12/08 05:24:19;;;;;;;3.07;1.77;;;5.60;99.90;;;;;;10400450;28;20701;-69
2021/12/08 05:29:24;;;;;;;2.53;1.60;;;5.60;99.90;;;;;;10406077;28;20220;-69
2021/12/08 05:34:25;;;;;;;3.83;1.90;;;5.60;99.90;;;;;;10402327;28;20427;-69
2021/12/08 05:39:29;;;;;;;2.17;1.70;;;5.60;99.90;;;;;;10406877;28;20281;-68
2021/12/08 05:44:30;;;;;;;3.60;1.87;;;5.40;99.90;;;;;;10399072;28;20224;-68
2021/12/08 05:49:31;;;;;;;2.17;1.83;;;5.30;99.90;;;;;;10398301;28;20280;-69
2021/12/08 05:54:35;;;;;;;4.87;1.60;;;5.30;99.90;;;;;;10403153;28;20366;-69
2021/12/08 05:59:37;;;;;;;4.07;1.93;;;5.30;99.90;;;;;;10406209;28;20664;-69
2021/12/08 06:04:39;;;;;;;3.50;1.70;;;5.30;99.90;;;;;;10393829;28;20259;-69
2021/12/08 06:09:41;;;;;;;1.77;1.53;;;5.30;99.90;;;;;;10399788;28;20217;-68
2021/12/08 06:14:42;;;;;;;2.63;1.67;;;5.30;99.90;;;;;;10402052;28;20220;-68
2021/12/08 06:19:47;;;;;;;3.40;1.70;;;5.40;99.90;;;;;;10419316;28;20239;-68
2021/12/08 06:24:49;;;;;;;3.70;2.10;;;5.40;99.90;;;;;;10408816;28;20232;-69
2021/12/08 06:29:52;;;;;;;3.17;1.93;;;5.40;99.90;;;;;;10412310;28;20251;-69
2021/12/08 06:34:57;;;;;;;5.07;2.10;;;5.40;99.90;;;;;;10413388;28;20244;-69
2021/12/08 06:40:14;;;;;;;2.80;1.87;;;5.40;99.90;;;;;;10410815;28;20217;-69
2021/12/08 06:45:20;;;;;;;4.37;2.50;;;5.40;99.90;;;;;;10415407;28;20229;-69
2021/12/08 06:50:29;;;;;;;5.47;2.70;;;5.40;99.90;;;;;;10414234;28;20197;-69
2021/12/08 06:55:39;;;;;;;4.03;3.23;;;5.40;99.90;;;;;;10405311;28;20228;-69
2021/12/08 07:00:57;;;;;;;6.43;3.00;;;5.50;99.90;;;;;;10412821;28;20221;-69
2021/12/08 07:06:10;;;;;;;5.80;3.40;;;5.50;99.90;;;;;;10413975;28;20266;-70
2021/12/08 07:11:14;;;;;;;5.07;3.53;;;5.50;99.90;;;;;;10414658;28;20766;-69
2021/12/08 07:16:20;;;;;;;5.97;3.87;;;5.50;99.90;;;;;;10411235;28;20264;-70
2021/12/08 07:21:30;;;;;;;5.30;3.77;;;5.50;99.90;;;;;;10401022;28;20220;-69
2021/12/08 07:26:34;;;;;;;5.03;3.67;;;5.50;99.90;;;;;;10404351;28;20219;-68
2021/12/08 07:31:42;;;;;;;5.03;3.80;;;5.50;99.90;;;;;;10412245;28;20232;-68
2021/12/08 07:36:46;;;;;;;6.03;3.83;;;5.50;99.90;;;;;;10411504;28;20251;-69
2021/12/08 07:41:52;;;;;;;8.73;4.30;;;5.60;99.90;;;;;;10402997;28;20240;-71
2021/12/08 07:46:59;;;;;;;6.40;4.27;;;5.70;99.90;;;;;;10411856;28;20269;-68
2021/12/08 07:52:16;;;;;;;8.37;4.67;;;5.70;99.90;;;;;;10404698;28;20209;-69
2021/12/08 07:57:23;;;;;;;4.93;4.07;;;5.80;99.90;;;;;;10401228;28;20220;-69
2021/12/08 08:02:26;;;;;;;5.03;4.10;;;5.90;99.90;;;;;;10406766;28;20267;-70
2021/12/08 08:07:27;;;;;;;5.50;3.97;;;5.90;99.90;;;;;;10402781;28;20248;-69
2021/12/08 08:12:33;;;;;;;5.77;4.30;;;5.90;99.90;;;;;;10397099;28;20642;-70
2021/12/08 08:17:40;;;;;;;4.67;4.17;;;5.90;99.90;;;;;;10402658;28;20795;-69
2021/12/08 08:22:41;;;;;;;6.37;3.90;;;5.90;99.90;;;;;;10410018;28;20324;-69
2021/12/08 08:27:42;;;;;;;6.27;4.03;;;5.90;99.90;;;;;;10410168;28;20303;-69
2021/12/08 08:32:47;;;;;;;5.70;3.73;;;6.00;99.90;;;;;;10411714;28;20708;-69
2021/12/08 08:37:52;;;;;;;3.97;3.57;;;6.10;99.90;;;;;;10401642;28;20639;-69
2021/12/08 08:42:54;;;;;;;7.63;4.00;;;6.20;99.90;;;;;;10389566;28;20689;-69
2021/12/08 08:48:18;;;;;;;9.23;3.80;;;6.30;99.90;;;;;;10395304;28;20290;-70
2021/12/08 08:53:22;;;;;;;15.63;7.57;;;6.40;99.90;;;;;;10398399;28;20565;-70
2021/12/08 08:58:25;;;;;;;10.07;6.23;;;6.50;99.90;;;;;;10408996;28;20278;-70
2021/12/08 09:03:29;;;;;;;8.80;5.40;;;6.70;99.90;;;;;;10408864;28;20666;-70
2021/12/08 09:08:32;;;;;;;9.27;5.77;;;6.80;99.90;;;;;;10408959;28;20635;-69
2021/12/08 09:13:38;;;;;;;9.43;4.70;;;6.90;99.90;;;;;;10401084;28;20225;-69
2021/12/08 09:18:55;;;;;;;5.97;4.30;;;7.00;99.90;;;;;;10406291;28;20228;-69
2021/12/08 09:24:17;;;;;;;4.77;3.30;;;7.10;99.90;;;;;;10401941;28;20225;-69
2021/12/08 09:29:23;;;;;;;5.57;3.40;;;7.10;99.90;;;;;;10405405;28;20262;-69
2021/12/08 09:34:31;;;;;;;7.90;3.60;;;7.20;99.90;;;;;;10408003;28;20232;-69
2021/12/08 09:39:43;;;;;;;5.73;3.80;;;7.20;99.90;;;;;;10393094;28;20205;-69
2021/12/08 09:44:51;;;;;;;5.30;3.20;;;7.20;99.90;;;;;;10391596;28;20220;-69
2021/12/08 09:49:52;;;;;;;4.07;3.00;;;7.10;99.90;;;;;;10408242;28;20220;-70
2021/12/08 09:54:57;;;;;;;5.70;3.47;;;7.10;99.90;;;;;;10389946;28;20228;-69
2021/12/08 09:59:58;;;;;;;8.20;3.80;;;7.10;99.90;;;;;;10396081;28;20706;-70
2021/12/08 10:05:06;;;;;;;6.50;4.13;;;7.20;99.90;;;;;;10413264;28;20223;-69
2021/12/08 10:10:10;;;;;;;6.53;4.40;;;7.20;99.90;;;;;;10414227;28;20216;-69
2021/12/08 10:15:15;;;;;;;5.63;4.27;;;7.20;99.90;;;;;;10412934;28;20219;-68
2021/12/08 10:20:31;;;;;;;8.17;5.60;;;7.10;99.90;;;;;;10403821;28;20231;-69
2021/12/08 10:25:35;;;;;;;7.27;4.80;;;7.10;99.90;;;;;;10406500;28;20617;-69
2021/12/08 10:30:41;;;;;;;5.37;4.57;;;7.10;99.90;;;;;;10414680;28;20891;-69
2021/12/08 10:36:01;;;;;;;6.73;5.17;;;7.10;99.90;;;;;;10412745;28;20231;-70
2021/12/08 10:41:06;;;;;;;10.20;4.97;;;7.20;99.90;;;;;;10415836;28;20217;-68
2021/12/08 10:46:11;;;;;;;7.37;5.30;;;7.30;99.90;;;;;;10413701;28;20280;-72
2021/12/08 10:56:40;;;;;;;7.13;5.77;;;7.40;99.90;;;;;;10405954;28;20229;-69
2021/12/08 11:01:41;;;;;;;7.77;5.70;;;7.40;99.90;;;;;;10412336;28;20227;-73
2021/12/08 11:06:42;;;;;;;8.00;5.67;;;7.50;99.90;;;;;;10415185;28;20606;-70
2021/12/08 11:11:44;;;;;;;8.83;6.27;;;7.50;99.90;;;;;;10411591;28;20216;-70
2021/12/08 11:16:44;;;;;;;10.10;6.00;;;7.60;99.90;;;;;;10397841;28;20608;-70
2021/12/08 11:21:53;;;;;;;11.17;5.87;;;7.60;99.90;;;;;;10411910;28;20226;-70
2021/12/08 11:26:57;;;;;;;7.30;5.10;;;7.70;99.90;;;;;;10412293;28;20705;-70
2021/12/08 11:32:02;;;;;;;5.20;4.43;;;7.80;99.90;;;;;;10409837;28;20226;-70
2021/12/08 11:37:15;;;;;;;6.03;5.03;;;7.80;99.90;;;;;;10411777;28;20233;-69
2021/12/08 11:42:24;;;;;;;6.53;4.97;;;7.70;99.90;;;;;;10403073;28;20868;-69
2021/12/08 11:47:32;;;;;;;8.07;5.10;;;7.70;99.90;;;;;;10407695;28;20241;-69
2021/12/08 11:52:32;;;;;;;6.70;5.30;;;7.70;99.90;;;;;;10391097;28;20977;-70
2021/12/08 11:57:52;;;;;;;6.90;5.13;;;7.70;99.90;;;;;;10411836;28;20276;-70
2021/12/08 12:03:02;;;;;;;6.80;5.47;;;7.70;99.90;;;;;;10403951;28;20251;-70
2021/12/08 12:08:05;;;;;;;9.17;6.23;;;7.80;99.90;;;;;;10409319;28;20277;-70
2021/12/08 12:13:10;;;;;;;7.07;5.43;;;7.70;99.90;;;;;;10396587;28;20740;-70
2021/12/08 12:18:11;;;;;;;11.40;5.80;;;7.80;99.90;;;;;;10408811;28;20307;-70
2021/12/08 12:23:48;;;;;;;8.87;5.53;;;7.90;99.90;;;;;;10404540;28;20225;-70
2021/12/08 12:29:07;;;;;;;9.63;5.43;;;8.00;99.90;;;;;;10382061;28;20210;-70
2021/12/08 12:34:29;;;;;;;8.33;4.83;;;7.90;99.90;;;;;;10393301;28;20231;-71
2021/12/08 12:39:30;;;;;;;7.90;5.27;;;7.90;99.90;;;;;;10395489;28;20579;-70
2021/12/08 12:44:31;;;;;;;6.67;5.00;;;7.90;99.90;;;;;;10384371;28;20303;-70
2021/12/08 12:49:34;;;;;;;8.00;5.00;;;7.80;99.90;;;;;;10379298;28;20242;-70
2021/12/08 12:54:35;;;;;;;7.20;4.77;;;7.80;99.90;;;;;;10384699;28;20240;-69
2021/12/08 12:59:52;;;;;;;8.47;5.40;;;7.80;99.90;;;;;;10387387;28;20607;-71
2021/12/08 13:05:09;;;;;;;8.60;5.00;;;7.80;99.90;;;;;;10398094;28;20224;-69
2021/12/08 13:10:13;;;;;;;7.40;4.87;;;7.70;99.90;;;;;;10383067;28;20232;-69
2021/12/08 13:15:19;;;;;;;14.03;5.00;;;7.80;99.90;;;;;;10383962;28;20227;-69
2021/12/08 13:20:25;;;;;;;7.27;4.67;;;7.70;99.90;;;;;;10389997;28;20280;-71
2021/12/08 13:25:42;;;;;;;11.67;5.10;;;7.70;99.90;;;;;;10386112;28;20229;-71
2021/12/08 13:31:03;;;;;;;7.83;4.83;;;7.60;99.90;;;;;;10403013;28;20596;-69
2021/12/08 13:36:23;;;;;;;6.60;5.30;;;7.50;99.90;;;;;;10397712;28;20229;-70
2021/12/08 13:41:30;;;;;;;8.80;5.30;;;7.50;99.90;;;;;;10395986;28;20285;-71
2021/12/08 13:46:57;;;;;;;11.27;5.80;;;7.40;99.90;;;;;;10409660;28;20213;-70
2021/12/08 13:52:06;;;;;;;9.90;5.80;;;7.40;99.90;;;;;;10409641;28;20279;-70
2021/12/08 13:57:40;;;;;;;7.67;5.90;;;7.30;99.90;;;;;;10405021;28;20286;-69
2021/12/08 14:02:40;;;;;;;10.10;6.13;;;7.20;99.90;;;;;;10389875;28;20239;-71
2021/12/08 14:07:50;;;;;;;8.67;5.87;;;7.20;99.90;;;;;;10414809;28;20285;-69
2021/12/08 14:12:56;;;;;;;9.93;5.77;;;7.10;99.90;;;;;;10396448;28;20228;-70
2021/12/08 14:18:12;;;;;;;13.37;5.77;;;7.10;99.90;;;;;;10407368;28;20711;-71
2021/12/08 14:23:15;;;;;;;7.70;6.07;;;7.10;99.90;;;;;;10407521;28;20220;-70
2021/12/08 14:28:31;;;;;;;7.83;5.87;;;7.10;99.90;;;;;;10406703;28;20228;-70
2021/12/08 14:33:32;;;;;;;7.93;5.50;;;7.00;99.90;;;;;;10399607;28;20275;-70
2021/12/08 14:38:33;;;;;;;9.03;6.30;;;6.90;99.90;;;;;;10408341;28;20706;-70
2021/12/08 14:43:36;;;;;;;9.70;6.33;;;6.80;99.90;;;;;;10407131;28;20307;-70
2021/12/08 14:48:44;;;;;;;10.93;7.07;;;6.70;99.90;;;;;;10396545;28;20213;-70
2021/12/08 14:53:45;;;;;;;11.10;6.33;;;6.60;99.90;;;;;;10415511;28;20572;-70
2021/12/08 14:58:46;;;;;;;8.10;6.10;;;6.60;99.90;;;;;;10414169;28;20212;-71
2021/12/08 15:03:47;;;;;;;11.67;8.27;;;6.50;99.90;;;;;;10413433;28;20220;-71
2021/12/08 15:08:50;;;;;;;10.53;7.80;;;6.50;99.90;;;;;;10411834;28;20216;-70
2021/12/08 15:13:51;;;;;;;14.17;8.00;;;6.50;99.90;;;;;;10414155;28;20236;-70
2021/12/08 15:19:03;;;;;;;12.10;8.30;;;6.40;99.90;;;;;;10401651;28;20253;-70
2021/12/08 15:24:07;;;;;;;13.57;9.30;;;6.40;99.90;;;;;;10414810;28;20221;-70
2021/12/08 15:29:41;;;;;;;13.50;8.70;;;6.40;99.90;;;;;;10423592;28;20232;-72
2021/12/08 15:34:43;;;;;;;11.97;7.97;;;6.40;99.90;;;;;;10411663;28;20248;-71
2021/12/08 15:39:45;;;;;;;9.27;6.93;;;6.40;99.90;;;;;;10399014;28;20266;-70
2021/12/08 15:44:47;;;;;;;9.73;6.80;;;6.30;99.90;;;;;;10399080;28;20286;-70
2021/12/08 15:49:47;;;;;;;13.53;6.50;;;6.30;99.90;;;;;;10410016;28;20224;-70
2021/12/08 15:54:48;;;;;;;11.27;7.20;;;6.30;99.90;;;;;;10412033;28;20981;-70
2021/12/08 15:59:51;;;;;;;10.73;6.60;;;6.30;99.90;;;;;;10396879;28;20209;-70
2021/12/08 16:04:55;;;;;;;11.60;6.97;;;6.30;99.90;;;;;;10397085;28;20220;-70
2021/12/08 16:09:57;;;;;;;9.97;6.67;;;6.30;99.90;;;;;;10398689;28;20212;-70
2021/12/08 16:15:00;;;;;;;18.97;9.17;;;6.30;99.90;;;;;;10412341;28;20247;-70
2021/12/08 16:20:06;;;;;;;10.93;7.20;;;6.20;99.90;;;;;;10411646;28;20224;-71
2021/12/08 16:25:08;;;;;;;11.00;7.30;;;6.20;99.90;;;;;;10408662;28;20224;-70
2021/12/08 16:30:09;;;;;;;8.67;6.93;;;6.30;99.90;;;;;;10409399;28;20655;-70
2021/12/08 16:35:09;;;;;;;10.67;6.37;;;6.30;99.90;;;;;;10409494;28;20246;-70
2021/12/08 16:45:16;;;;;;;10.40;7.13;;;6.30;99.90;;;;;;10409332;28;20199;-70
2021/12/08 16:50:21;;;;;;;9.40;6.93;;;6.30;99.90;;;;;;10409036;28;20177;-70
2021/12/08 16:55:25;;;;;;;7.73;6.13;;;6.30;99.90;;;;;;10399236;28;20213;-71
2021/12/08 17:00:44;;;;;;;10.80;6.67;;;6.20;99.90;;;;;;10408331;28;20288;-70
2021/12/08 17:05:47;;;;;;;11.53;8.10;;;6.20;99.90;;;;;;10390440;28;20212;-71
2021/12/08 17:10:50;;;;;;;20.17;13.00;;;6.20;99.90;;;;;;10407027;28;20558;-70
2021/12/08 17:15:51;;;;;;;13.60;9.87;;;6.20;99.90;;;;;;10391532;28;20228;-71
2021/12/08 17:20:52;;;;;;;14.13;9.67;;;6.20;99.90;;;;;;10403845;28;20209;-70
2021/12/08 17:25:52;;;;;;;11.07;7.83;;;6.10;99.90;;;;;;10402535;28;20802;-70
2021/12/08 17:30:54;;;;;;;10.40;7.57;;;6.10;99.90;;;;;;10395996;28;20212;-71
2021/12/08 17:35:57;;;;;;;10.80;7.93;;;6.10;99.90;;;;;;10408231;28;20252;-70
2021/12/08 17:40:58;;;;;;;10.87;7.73;;;6.10;99.90;;;;;;10401543;28;20576;-70
2021/12/08 17:46:02;;;;;;;11.17;8.13;;;6.10;99.90;;;;;;10401846;28;20208;-71
2021/12/08 17:51:07;;;;;;;14.93;8.60;;;6.10;99.90;;;;;;10410379;28;20314;-71
2021/12/08 17:56:08;;;;;;;11.27;8.80;;;6.10;99.90;;;;;;10407799;28;20794;-71
2021/12/08 18:01:10;;;;;;;12.83;8.77;;;6.10;99.90;;;;;;10395007;28;20221;-71
2021/12/08 18:06:11;;;;;;;12.13;8.50;;;6.10;99.90;;;;;;10388674;28;20212;-70
2021/12/08 18:11:12;;;;;;;17.10;10.63;;;6.10;99.90;;;;;;10407252;28;20220;-71
2021/12/08 18:16:14;;;;;;;14.20;10.00;;;6.10;99.90;;;;;;10395468;28;20239;-71
2021/12/08 18:21:15;;;;;;;17.27;11.90;;;6.10;99.90;;;;;;10407046;28;20274;-71
2021/12/08 18:26:16;;;;;;;15.17;11.83;;;6.10;99.90;;;;;;10411739;28;20220;-70
2021/12/08 18:31:17;;;;;;;19.30;12.80;;;6.10;99.90;;;;;;10414705;28;20224;-70
2021/12/08 18:36:22;;;;;;;17.40;11.33;;;6.10;99.90;;;;;;10417415;28;20228;-71
2021/12/08 18:41:26;;;;;;;14.37;9.13;;;6.10;99.90;;;;;;10416177;28;20815;-71
2021/12/08 18:46:28;;;;;;;9.70;7.73;;;6.10;99.90;;;;;;10413767;28;20251;-70
2021/12/08 18:51:32;;;;;;;12.27;7.83;;;6.10;99.90;;;;;;10413790;28;20251;-70
2021/12/08 18:56:33;;;;;;;11.20;7.80;;;6.00;99.90;;;;;;10407219;28;20252;-71
2021/12/08 19:01:36;;;;;;;10.93;7.73;;;6.00;99.90;;;;;;10415580;28;20271;-70
2021/12/08 19:06:37;;;;;;;11.07;8.13;;;6.00;99.90;;;;;;10404418;28;20630;-71
2021/12/08 19:11:38;;;;;;;10.40;7.90;;;5.90;99.90;;;;;;10411875;28;20224;-71
2021/12/08 19:16:39;;;;;;;14.67;8.87;;;5.90;99.90;;;;;;10414357;28;20235;-72
2021/12/08 19:21:40;;;;;;;10.67;8.10;;;5.90;99.90;;;;;;10402533;28;20223;-71
2021/12/08 19:26:41;;;;;;;12.10;7.77;;;5.90;99.90;;;;;;10404134;28;20275;-72
2021/12/08 19:31:46;;;;;;;12.23;8.43;;;5.80;99.90;;;;;;10403150;28;20224;-71
2021/12/08 19:36:47;;;;;;;13.13;7.87;;;5.80;99.90;;;;;;10399579;28;20222;-72
2021/12/08 19:41:48;;;;;;;11.23;8.93;;;5.70;99.90;;;;;;10411440;28;20225;-70
2021/12/08 19:46:50;;;;;;;13.50;8.47;;;5.70;99.90;;;;;;10409338;28;20213;-71
2021/12/08 19:51:53;;;;;;;13.30;8.90;;;5.60;99.90;;;;;;10413989;28;20217;-71
2021/12/08 19:56:57;;;;;;;11.93;8.43;;;5.60;99.90;;;;;;10408603;28;20266;-70
2021/12/08 20:01:59;;;;;;;18.17;12.63;;;5.60;99.90;;;;;;10411870;28;20220;-72
2021/12/08 20:07:02;;;;;;;12.63;9.77;;;5.60;99.90;;;;;;10413143;28;20221;-71
2021/12/08 20:12:03;;;;;;;15.20;9.03;;;5.60;99.90;;;;;;10400484;28;20220;-70
2021/12/08 20:17:05;;;;;;;14.67;9.80;;;5.60;99.90;;;;;;10410699;28;20271;-71
2021/12/08 20:22:05;;;;;;;17.67;13.43;;;5.60;99.90;;;;;;10407524;28;20220;-71
2021/12/08 20:27:07;;;;;;;14.10;9.50;;;5.70;99.90;;;;;;10412946;28;20228;-72
2021/12/08 20:32:08;;;;;;;13.37;10.20;;;5.70;99.90;;;;;;10410690;28;20221;-72
2021/12/08 20:37:09;;;;;;;15.63;11.13;;;5.80;99.90;;;;;;10413539;28;20648;-72
2021/12/08 20:42:09;;;;;;;15.67;11.10;;;5.80;99.90;;;;;;10414766;28;20248;-70
2021/12/08 20:47:11;;;;;;;18.90;13.13;;;5.80;99.90;;;;;;10411919;28;20230;-72
2021/12/08 20:52:12;;;;;;;24.80;16.17;;;5.80;99.90;;;;;;10408999;28;20232;-72
2021/12/08 20:57:13;;;;;;;19.57;13.03;;;5.80;99.90;;;;;;10412950;28;20332;-71
2021/12/08 21:02:16;;;;;;;15.90;10.33;;;5.80;99.90;;;;;;10410856;28;20308;-71
2021/12/08 21:07:18;;;;;;;15.80;10.60;;;5.80;99.90;;;;;;10423881;28;20994;-72
2021/12/08 21:12:19;;;;;;;17.27;10.30;;;5.80;99.90;;;;;;10399036;28;20224;-71
2021/12/08 21:17:20;;;;;;;16.30;11.90;;;5.80;99.90;;;;;;10408926;28;20290;-71
2021/12/08 21:22:21;;;;;;;26.07;16.07;;;5.70;99.90;;;;;;10408689;28;20596;-71
2021/12/08 21:27:23;;;;;;;24.33;16.53;;;5.70;99.90;;;;;;10382158;28;20244;-71
2021/12/08 21:32:24;;;;;;;18.73;15.10;;;5.60;99.90;;;;;;10407709;28;20691;-70
2021/12/08 21:37:25;;;;;;;11.70;9.50;;;5.60;99.90;;;;;;10399139;28;20235;-71
2021/12/08 21:42:28;;;;;;;12.97;8.87;;;5.60;99.90;;;;;;10407403;28;20263;-71
2021/12/08 21:47:31;;;;;;;14.77;9.07;;;5.50;99.90;;;;;;10394346;28;20300;-72
2021/12/08 21:52:35;;;;;;;14.90;9.63;;;5.40;99.90;;;;;;10402146;28;20255;-72
2021/12/08 21:57:36;;;;;;;16.23;8.83;;;5.20;99.90;;;;;;10400857;28;20240;-72
2021/12/08 22:02:38;;;;;;;14.30;10.03;;;5.20;99.90;;;;;;10411173;28;20322;-72
2021/12/08 22:07:43;;;;;;;14.60;10.27;;;5.20;99.90;;;;;;10398330;28;20216;-71
2021/12/08 22:12:45;;;;;;;17.40;12.70;;;5.20;99.90;;;;;;10397403;28;20217;-72
2021/12/08 22:17:46;;;;;;;16.90;11.47;;;5.30;99.90;;;;;;10406721;28;20319;-71
2021/12/08 22:22:47;;;;;;;18.20;13.23;;;5.20;99.90;;;;;;10417584;28;20660;-72
2021/12/08 22:27:53;;;;;;;19.83;13.00;;;5.10;99.90;;;;;;10403694;28;20641;-71
2021/12/08 22:32:55;;;;;;;16.57;11.77;;;5.20;99.90;;;;;;10389727;28;20638;-75
2021/12/08 22:37:55;;;;;;;15.57;11.13;;;5.10;99.90;;;;;;10406767;28;20309;-73
2021/12/08 22:42:58;;;;;;;15.33;11.53;;;5.10;99.90;;;;;;10414268;28;20700;-71
2021/12/08 22:47:59;;;;;;;20.27;11.17;;;5.20;99.90;;;;;;10413385;28;20220;-72
2021/12/08 22:53:00;;;;;;;15.87;11.57;;;5.20;99.90;;;;;;10413804;28;20229;-71
2021/12/08 22:58:03;;;;;;;17.30;11.50;;;5.30;99.90;;;;;;10406352;28;20587;-71
2021/12/08 23:03:07;;;;;;;15.47;10.93;;;5.30;99.90;;;;;;10414696;28;20232;-72
2021/12/08 23:08:07;;;;;;;15.17;11.80;;;5.40;99.90;;;;;;10401584;28;20221;-72
2021/12/08 23:13:14;;;;;;;14.83;10.80;;;5.30;99.90;;;;;;10382684;28;20223;-72
2021/12/08 23:18:17;;;;;;;16.47;12.03;;;5.30;99.90;;;;;;10410709;28;20229;-71
2021/12/08 23:23:18;;;;;;;19.73;10.67;;;5.40;99.90;;;;;;10397353;28;20217;-71
2021/12/08 23:28:18;;;;;;;13.80;10.77;;;5.40;99.90;;;;;;10413704;28;20220;-73
2021/12/08 23:33:20;;;;;;;15.10;10.97;;;5.40;99.90;;;;;;10410531;28;20223;-71
2021/12/08 23:38:45;;;;;;;14.23;10.60;;;5.40;99.90;;;;;;10396677;28;20242;-71
2021/12/08 23:43:45;;;;;;;20.50;12.40;;;5.40;99.90;;;;;;10407407;28;20242;-71
2021/12/08 23:48:47;;;;;;;19.13;12.43;;;5.40;99.90;;;;;;10407415;28;20805;-72
2021/12/08 23:53:49;;;;;;;18.00;12.10;;;5.40;99.90;;;;;;10413484;28;20233;-71
2021/12/08 23:58:52;;;;;;;17.27;10.93;;;5.40;99.90;;;;;;10399944;28;20249;-72
